createdAt,value
2019-02-15T00:00:47.917Z,3.87
2019-02-15T00:01:47.908Z,3.92
2019-02-15T00:02:47.896Z,3.94
2019-02-15T00:03:47.888Z,3.92
2019-02-15T00:04:47.871Z,3.86
2019-02-15T00:05:47.870Z,3.88
2019-02-15T00:06:47.860Z,3.73
2019-02-15T00:07:47.868Z,3.77
2019-02-15T00:08:47.837Z,3.73
2019-02-15T00:09:47.832Z,3.68
2019-02-15T00:10:47.815Z,3.59
2019-02-15T00:11:47.800Z,3.58
2019-02-15T00:12:47.790Z,3.48
2019-02-15T00:13:47.775Z,3.58
2019-02-15T00:14:47.771Z,3.59
2019-02-15T00:15:47.757Z,3.56
2019-02-15T00:16:47.750Z,3.51
2019-02-15T00:17:47.735Z,3.55
2019-02-15T00:18:47.725Z,3.53
2019-02-15T00:19:47.715Z,3.56
2019-02-15T00:20:49.419Z,3.44
2019-02-15T00:21:47.704Z,3.47
2019-02-15T00:22:47.682Z,3.44
2019-02-15T00:23:47.667Z,3.45
2019-02-15T00:24:47.664Z,3.51
2019-02-15T00:25:47.654Z,3.48
2019-02-15T00:26:47.642Z,3.56
2019-02-15T00:27:47.638Z,3.55
2019-02-15T00:28:47.620Z,3.56
2019-02-15T00:29:47.609Z,3.50
2019-02-15T00:30:47.599Z,3.48
2019-02-15T00:31:47.589Z,3.45
2019-02-15T00:32:47.574Z,3.50
2019-02-15T00:33:47.565Z,3.50
2019-02-15T00:34:47.556Z,3.53
2019-02-15T00:35:47.547Z,3.37
2019-02-15T00:36:47.580Z,3.37
2019-02-15T00:37:47.531Z,3.29
2019-02-15T00:38:47.514Z,3.31
2019-02-15T00:39:47.500Z,3.32
2019-02-15T00:40:47.499Z,3.29
2019-02-15T00:41:47.481Z,3.34
2019-02-15T00:42:47.468Z,3.37
2019-02-15T00:43:47.466Z,3.28
2019-02-15T00:44:47.444Z,3.29
2019-02-15T00:45:47.436Z,3.41
2019-02-15T00:46:47.438Z,3.36
2019-02-15T00:47:47.420Z,3.29
2019-02-15T00:48:47.399Z,3.41
2019-02-15T00:49:47.396Z,3.37
2019-02-15T00:50:47.382Z,3.37
2019-02-15T00:51:47.371Z,3.40
2019-02-15T00:52:47.363Z,3.40
2019-02-15T00:53:47.351Z,3.32
2019-02-15T00:54:47.340Z,3.34
2019-02-15T00:55:47.331Z,3.28
2019-02-15T00:56:47.326Z,3.25
2019-02-15T00:57:47.309Z,3.26
2019-02-15T00:58:47.298Z,3.08
2019-02-15T00:59:47.286Z,3.16
2019-02-15T01:00:47.285Z,3.16
2019-02-15T01:01:47.266Z,3.08
2019-02-15T01:02:47.253Z,3.00
2019-02-15T01:03:47.246Z,3.01
2019-02-15T01:04:47.231Z,3.01
2019-02-15T01:05:47.220Z,2.98
2019-02-15T01:06:47.216Z,2.97
2019-02-15T01:07:47.201Z,2.98
2019-02-15T01:08:47.190Z,2.98
2019-02-15T01:09:47.179Z,3.01
2019-02-15T01:10:47.171Z,2.90
2019-02-15T01:11:47.158Z,2.90
2019-02-15T01:12:47.150Z,3.03
2019-02-15T01:13:47.138Z,2.95
2019-02-15T01:14:47.132Z,2.98
2019-02-15T01:15:47.113Z,2.97
2019-02-15T01:16:47.098Z,2.90
2019-02-15T01:17:47.091Z,3.01
2019-02-15T01:18:47.091Z,2.97
2019-02-15T01:19:47.071Z,3.01
2019-02-15T01:20:47.059Z,3.01
2019-02-15T01:21:50.805Z,2.95
2019-02-15T01:22:47.039Z,2.95
2019-02-15T01:23:47.032Z,2.98
2019-02-15T01:24:47.021Z,2.92
2019-02-15T01:25:47.004Z,2.87
2019-02-15T01:26:46.996Z,2.90
2019-02-15T01:27:46.986Z,2.89
2019-02-15T01:28:46.971Z,2.83
2019-02-15T01:29:46.963Z,2.89
2019-02-15T01:30:46.952Z,2.82
2019-02-15T01:31:46.949Z,2.90
2019-02-15T01:32:46.931Z,2.89
2019-02-15T01:33:46.914Z,2.83
2019-02-15T01:34:46.910Z,2.85
2019-02-15T01:35:46.900Z,2.87
2019-02-15T01:36:46.884Z,2.69
2019-02-15T01:37:46.870Z,2.77
2019-02-15T01:38:46.864Z,2.79
2019-02-15T01:39:46.849Z,2.75
2019-02-15T01:40:46.843Z,2.64
2019-02-15T01:41:46.836Z,2.67
2019-02-15T01:42:46.817Z,2.72
2019-02-15T01:43:46.806Z,2.64
2019-02-15T01:44:46.798Z,2.60
2019-02-15T01:45:46.788Z,2.67
2019-02-15T01:46:46.773Z,2.67
2019-02-15T01:47:46.764Z,2.56
2019-02-15T01:48:46.751Z,2.56
2019-02-15T01:49:46.744Z,2.57
2019-02-15T01:50:46.723Z,2.57
2019-02-15T01:51:46.714Z,2.57
2019-02-15T01:52:46.711Z,2.53
2019-02-15T01:53:46.692Z,2.56
2019-02-15T01:54:46.690Z,2.61
2019-02-15T01:55:46.673Z,2.56
2019-02-15T01:56:46.667Z,2.67
2019-02-15T01:57:46.657Z,2.61
2019-02-15T01:58:46.642Z,2.68
2019-02-15T01:59:46.629Z,2.74
2019-02-15T02:00:46.618Z,2.68
2019-02-15T02:01:46.618Z,2.57
2019-02-15T02:02:46.598Z,2.57
2019-02-15T02:03:46.586Z,2.62
2019-02-15T02:04:46.584Z,2.67
2019-02-15T02:05:46.561Z,2.51
2019-02-15T02:06:46.553Z,2.54
2019-02-15T02:07:46.543Z,2.53
2019-02-15T02:08:46.529Z,2.50
2019-02-15T02:09:46.520Z,2.51
2019-02-15T02:10:46.514Z,2.53
2019-02-15T02:11:46.493Z,2.61
2019-02-15T02:12:46.479Z,2.56
2019-02-15T02:13:49.593Z,2.67
2019-02-15T02:14:46.467Z,2.56
2019-02-15T02:15:46.451Z,2.56
2019-02-15T02:16:46.441Z,2.65
2019-02-15T02:17:46.433Z,2.57
2019-02-15T02:18:46.418Z,2.67
2019-02-15T02:19:46.407Z,2.61
2019-02-15T02:20:46.400Z,2.54
2019-02-15T02:21:46.391Z,2.57
2019-02-15T02:22:46.379Z,2.51
2019-02-15T02:23:46.363Z,2.53
2019-02-15T02:24:46.354Z,2.49
2019-02-15T02:25:46.343Z,2.57
2019-02-15T02:26:46.328Z,2.49
2019-02-15T02:27:46.322Z,2.57
2019-02-15T02:28:46.309Z,2.49
2019-02-15T02:29:46.297Z,2.42
2019-02-15T02:30:46.292Z,2.53
2019-02-15T02:31:46.273Z,2.47
2019-02-15T02:32:46.258Z,2.49
2019-02-15T02:33:46.254Z,2.51
2019-02-15T02:34:46.244Z,2.50
2019-02-15T02:35:46.232Z,2.56
2019-02-15T02:36:46.215Z,2.50
2019-02-15T02:37:46.214Z,2.50
2019-02-15T02:38:46.195Z,2.54
2019-02-15T02:39:46.186Z,2.56
2019-02-15T02:40:46.170Z,2.56
2019-02-15T02:41:46.169Z,2.50
2019-02-15T02:42:46.157Z,2.49
2019-02-15T02:43:46.134Z,2.56
2019-02-15T02:44:46.125Z,2.51
2019-02-15T02:45:46.118Z,2.57
2019-02-15T02:46:46.100Z,2.51
2019-02-15T02:47:46.103Z,2.47
2019-02-15T02:48:46.085Z,2.53
2019-02-15T02:49:46.071Z,2.49
2019-02-15T02:50:46.061Z,2.51
2019-02-15T02:51:46.054Z,2.54
2019-02-15T02:52:46.037Z,2.50
2019-02-15T02:53:46.029Z,2.53
2019-02-15T02:54:46.019Z,2.39
2019-02-15T02:55:46.008Z,2.39
2019-02-15T02:56:45.990Z,2.44
2019-02-15T02:57:45.992Z,2.35
2019-02-15T02:58:47.945Z,2.35
2019-02-15T02:59:45.954Z,2.35
2019-02-15T03:00:45.943Z,2.39
2019-02-15T03:01:45.940Z,2.35
2019-02-15T03:02:45.926Z,2.32
2019-02-15T03:03:45.910Z,2.35
2019-02-15T03:04:45.898Z,2.32
2019-02-15T03:05:45.902Z,2.42
2019-02-15T03:06:45.876Z,2.39
2019-02-15T03:07:45.863Z,2.38
2019-02-15T03:08:45.850Z,2.38
2019-02-15T03:09:45.838Z,2.36
2019-02-15T03:10:45.822Z,2.35
2019-02-15T03:11:45.815Z,2.42
2019-02-15T03:12:45.802Z,2.31
2019-02-15T03:13:45.792Z,2.29
2019-02-15T03:14:45.776Z,2.17
2019-02-15T03:15:45.762Z,2.18
2019-02-15T03:16:45.752Z,2.10
2019-02-15T03:17:45.746Z,2.08
2019-02-15T03:18:45.726Z,2.07
2019-02-15T03:19:45.721Z,2.06
2019-02-15T03:20:45.716Z,2.17
2019-02-15T03:21:45.695Z,2.22
2019-02-15T03:22:45.685Z,2.22
2019-02-15T03:23:45.674Z,2.18
2019-02-15T03:24:45.663Z,2.18
2019-02-15T03:25:45.646Z,2.11
2019-02-15T03:26:45.635Z,2.02
2019-02-15T03:27:45.621Z,2.11
2019-02-15T03:28:45.616Z,2.13
2019-02-15T03:29:45.595Z,2.07
2019-02-15T03:30:45.586Z,2.00
2019-02-15T03:31:45.615Z,1.92
2019-02-15T03:32:45.573Z,2.02
2019-02-15T03:33:45.559Z,1.99
2019-02-15T03:34:47.457Z,2.06
2019-02-15T03:35:45.527Z,1.95
2019-02-15T03:36:45.509Z,2.06
2019-02-15T03:37:45.500Z,2.07
2019-02-15T03:38:45.489Z,1.92
2019-02-15T03:39:45.478Z,1.95
2019-02-15T03:40:45.474Z,2.00
2019-02-15T03:41:45.462Z,1.97
2019-02-15T03:42:45.449Z,2.00
2019-02-15T03:43:45.429Z,1.85
2019-02-15T03:44:45.423Z,1.88
2019-02-15T03:45:45.402Z,1.85
2019-02-15T03:46:45.393Z,1.89
2019-02-15T03:47:45.379Z,1.91
2019-02-15T03:48:45.361Z,1.88
2019-02-15T03:49:45.355Z,1.91
2019-02-15T03:50:45.352Z,1.88
2019-02-15T03:51:45.333Z,1.97
2019-02-15T03:52:45.316Z,1.92
2019-02-15T03:53:45.313Z,1.85
2019-02-15T03:54:45.295Z,1.88
2019-02-15T03:55:45.290Z,1.80
2019-02-15T03:56:45.268Z,1.81
2019-02-15T03:57:45.260Z,1.74
2019-02-15T03:58:45.251Z,1.81
2019-02-15T03:59:45.231Z,1.78
2019-02-15T04:00:45.218Z,1.92
2019-02-15T04:01:45.210Z,1.89
2019-02-15T04:02:45.200Z,1.78
2019-02-15T04:03:45.181Z,1.74
2019-02-15T04:04:45.166Z,1.80
2019-02-15T04:05:45.158Z,1.84
2019-02-15T04:06:45.156Z,1.84
2019-02-15T04:07:45.131Z,1.74
2019-02-15T04:08:45.125Z,1.84
2019-02-15T04:09:45.109Z,1.77
2019-02-15T04:10:45.098Z,1.78
2019-02-15T04:11:45.084Z,1.81
2019-02-15T04:12:45.082Z,1.71
2019-02-15T04:13:45.073Z,1.78
2019-02-15T04:14:45.050Z,1.74
2019-02-15T04:15:45.033Z,1.84
2019-02-15T04:16:45.024Z,1.68
2019-02-15T04:17:45.018Z,1.78
2019-02-15T04:18:44.994Z,1.71
2019-02-15T04:19:44.987Z,1.70
2019-02-15T04:20:44.973Z,1.74
2019-02-15T04:21:44.959Z,1.73
2019-02-15T04:22:44.953Z,1.84
2019-02-15T04:23:44.944Z,1.74
2019-02-15T04:24:44.921Z,1.77
2019-02-15T04:25:44.918Z,1.70
2019-02-15T04:26:44.895Z,1.78
2019-02-15T04:27:44.886Z,1.78
2019-02-15T04:28:44.878Z,1.78
2019-02-15T04:29:44.869Z,1.77
2019-02-15T04:30:44.849Z,1.84
2019-02-15T04:31:44.839Z,1.77
2019-02-15T04:32:44.825Z,1.70
2019-02-15T04:33:44.811Z,1.70
2019-02-15T04:34:44.798Z,1.76
2019-02-15T04:35:44.782Z,1.77
2019-02-15T04:36:44.863Z,1.77
2019-02-15T04:37:44.762Z,1.81
2019-02-15T04:38:44.756Z,1.73
2019-02-15T04:39:44.741Z,1.77
2019-02-15T04:40:44.723Z,1.80
2019-02-15T04:41:44.716Z,1.80
2019-02-15T04:42:44.711Z,1.76
2019-02-15T04:43:44.690Z,1.80
2019-02-15T04:44:44.673Z,1.80
2019-02-15T04:45:44.662Z,1.80
2019-02-15T04:46:44.653Z,1.85
2019-02-15T04:47:44.644Z,1.84
2019-02-15T04:48:45.154Z,1.85
2019-02-15T04:49:44.627Z,1.74
2019-02-15T04:50:44.609Z,1.81
2019-02-15T04:51:44.587Z,1.80
2019-02-15T04:52:44.576Z,1.74
2019-02-15T04:53:44.561Z,1.73
2019-02-15T04:54:44.554Z,1.68
2019-02-15T04:55:44.539Z,1.78
2019-02-15T04:56:46.460Z,1.73
2019-02-15T04:57:44.519Z,1.73
2019-02-15T04:58:44.500Z,1.80
2019-02-15T04:59:44.491Z,1.74
2019-02-15T05:00:44.478Z,1.76
2019-02-15T05:01:44.464Z,1.77
2019-02-15T05:02:44.461Z,1.76
2019-02-15T05:03:44.444Z,1.73
2019-02-15T05:04:44.426Z,1.71
2019-02-15T05:05:44.426Z,1.78
2019-02-15T05:06:44.401Z,1.81
2019-02-15T05:07:44.396Z,1.68
2019-02-15T05:08:44.368Z,1.67
2019-02-15T05:09:44.359Z,1.74
2019-02-15T05:10:44.395Z,1.77
2019-02-15T05:11:44.337Z,1.76
2019-02-15T05:12:44.328Z,1.77
2019-02-15T05:13:44.309Z,1.78
2019-02-15T05:14:52.879Z,1.81
2019-02-15T05:15:44.291Z,1.77
2019-02-15T05:16:44.278Z,1.81
2019-02-15T05:17:44.263Z,1.81
2019-02-15T05:18:44.257Z,1.78
2019-02-15T05:19:44.234Z,1.80
2019-02-15T05:20:44.225Z,1.84
2019-02-15T05:21:44.213Z,1.78
2019-02-15T05:22:44.207Z,1.77
2019-02-15T05:23:44.192Z,1.77
2019-02-15T05:24:44.173Z,1.77
2019-02-15T05:25:44.166Z,1.80
2019-02-15T05:26:44.154Z,1.81
2019-02-15T05:27:44.132Z,1.78
2019-02-15T05:28:44.139Z,1.80
2019-02-15T05:29:44.116Z,1.81
2019-02-15T05:30:44.099Z,1.80
2019-02-15T05:31:44.086Z,1.84
2019-02-15T05:32:44.080Z,1.81
2019-02-15T05:33:44.056Z,1.88
2019-02-15T05:34:44.049Z,1.84
2019-02-15T05:35:44.034Z,1.92
2019-02-15T05:36:44.018Z,1.88
2019-02-15T05:37:44.011Z,1.91
2019-02-15T05:38:43.999Z,1.91
2019-02-15T05:39:43.989Z,1.89
2019-02-15T05:40:43.967Z,1.80
2019-02-15T05:41:43.964Z,1.84
2019-02-15T05:42:43.949Z,1.87
2019-02-15T05:43:43.933Z,1.87
2019-02-15T05:44:43.920Z,1.95
2019-02-15T05:45:43.909Z,1.81
2019-02-15T05:46:43.900Z,1.97
2019-02-15T05:47:43.885Z,1.97
2019-02-15T05:48:43.874Z,1.88
2019-02-15T05:49:43.860Z,1.88
2019-02-15T05:50:43.843Z,1.99
2019-02-15T05:51:43.864Z,1.92
2019-02-15T05:52:43.826Z,1.87
2019-02-15T05:53:43.803Z,1.91
2019-02-15T05:54:43.800Z,1.89
2019-02-15T05:55:43.779Z,1.87
2019-02-15T05:56:43.767Z,1.99
2019-02-15T05:57:43.756Z,1.88
2019-02-15T05:58:43.743Z,2.02
2019-02-15T05:59:43.731Z,1.95
2019-02-15T06:00:43.722Z,1.99
2019-02-15T06:01:43.710Z,2.02
2019-02-15T06:02:43.695Z,1.99
2019-02-15T06:03:43.676Z,1.95
2019-02-15T06:04:43.670Z,1.92
2019-02-15T06:05:43.660Z,2.00
2019-02-15T06:06:43.640Z,2.06
2019-02-15T06:07:43.633Z,1.99
2019-02-15T06:08:43.663Z,2.06
2019-02-15T06:09:43.608Z,2.07
2019-02-15T06:10:43.593Z,2.04
2019-02-15T06:11:43.575Z,2.02
2019-02-15T06:12:43.563Z,2.02
2019-02-15T06:13:43.555Z,2.00
2019-02-15T06:14:43.547Z,2.04
2019-02-15T06:15:43.531Z,1.99
2019-02-15T06:16:43.513Z,1.91
2019-02-15T06:17:43.505Z,1.99
2019-02-15T06:18:43.517Z,1.94
2019-02-15T06:19:43.481Z,1.95
2019-02-15T06:20:43.469Z,2.00
2019-02-15T06:21:43.453Z,2.02
2019-02-15T06:22:43.441Z,2.04
2019-02-15T06:23:43.427Z,1.97
2019-02-15T06:24:43.411Z,2.06
2019-02-15T06:25:43.404Z,1.94
2019-02-15T06:26:43.403Z,1.91
2019-02-15T06:27:43.369Z,1.92
2019-02-15T06:28:43.366Z,1.87
2019-02-15T06:29:43.349Z,1.92
2019-02-15T06:30:43.342Z,1.88
2019-02-15T06:31:43.326Z,1.94
2019-02-15T06:32:43.316Z,1.94
2019-02-15T06:33:43.299Z,1.91
2019-02-15T06:34:43.291Z,1.87
2019-02-15T06:35:43.273Z,2.04
2019-02-15T06:36:43.261Z,2.07
2019-02-15T06:37:43.253Z,2.07
2019-02-15T06:38:43.240Z,2.00
2019-02-15T06:39:43.220Z,2.11
2019-02-15T06:40:43.253Z,2.13
2019-02-15T06:41:44.987Z,2.10
2019-02-15T06:42:43.189Z,2.20
2019-02-15T06:43:43.175Z,2.17
2019-02-15T06:44:43.163Z,2.26
2019-02-15T06:45:44.982Z,2.32
2019-02-15T06:46:43.138Z,2.33
2019-02-15T06:47:43.131Z,2.35
2019-02-15T06:48:43.115Z,2.38
2019-02-15T06:49:43.104Z,2.32
2019-02-15T06:50:43.085Z,2.38
2019-02-15T06:51:43.075Z,2.36
2019-02-15T06:52:43.067Z,2.31
2019-02-15T06:53:43.052Z,2.32
2019-02-15T06:54:43.039Z,2.28
2019-02-15T06:55:43.023Z,2.29
2019-02-15T06:56:43.011Z,2.36
2019-02-15T06:57:43.001Z,2.42
2019-02-15T06:58:45.659Z,2.39
2019-02-15T06:59:42.971Z,2.51
2019-02-15T07:00:42.963Z,2.51
2019-02-15T07:01:42.949Z,2.53
2019-02-15T07:02:42.939Z,2.53
2019-02-15T07:03:42.927Z,2.60
2019-02-15T07:04:42.917Z,2.65
2019-02-15T07:05:42.897Z,2.62
2019-02-15T07:06:42.892Z,2.71
2019-02-15T07:07:42.872Z,2.68
2019-02-15T07:08:42.865Z,2.65
2019-02-15T07:09:42.863Z,2.74
2019-02-15T07:10:42.834Z,2.69
2019-02-15T07:11:42.826Z,2.69
2019-02-15T07:12:46.551Z,2.72
2019-02-15T07:13:42.803Z,2.79
2019-02-15T07:14:42.791Z,2.86
2019-02-15T07:15:42.771Z,2.87
2019-02-15T07:16:42.769Z,2.89
2019-02-15T07:17:42.759Z,2.92
2019-02-15T07:18:42.740Z,2.90
2019-02-15T07:19:43.862Z,2.87
2019-02-15T07:20:42.724Z,2.90
2019-02-15T07:21:42.697Z,2.92
2019-02-15T07:22:42.729Z,2.95
2019-02-15T07:23:42.674Z,2.98
2019-02-15T07:24:42.677Z,2.98
2019-02-15T07:25:42.652Z,2.98
2019-02-15T07:26:42.643Z,3.08
2019-02-15T07:27:42.634Z,3.11
2019-02-15T07:28:42.620Z,3.23
2019-02-15T07:29:42.608Z,3.29
2019-02-15T07:30:42.594Z,3.37
2019-02-15T07:31:42.585Z,3.56
2019-02-15T07:32:42.569Z,3.65
2019-02-15T07:33:42.554Z,3.47
2019-02-15T07:34:42.547Z,3.56
2019-02-15T07:35:42.599Z,3.53
2019-02-15T07:36:42.603Z,3.53
2019-02-15T07:37:42.510Z,3.68
2019-02-15T07:38:42.499Z,3.65
2019-02-15T07:39:44.003Z,3.69
2019-02-15T07:40:42.473Z,3.70
2019-02-15T07:41:42.461Z,3.78
2019-02-15T07:42:42.455Z,3.77
2019-02-15T07:43:42.440Z,3.76
2019-02-15T07:44:43.991Z,3.86
2019-02-15T07:45:43.085Z,3.91
2019-02-15T07:46:42.410Z,3.87
2019-02-15T07:47:42.398Z,3.96
2019-02-15T07:48:42.384Z,3.96
2019-02-15T07:49:42.367Z,4.01
2019-02-15T07:50:42.363Z,3.99
2019-02-15T07:51:42.346Z,3.98
2019-02-15T07:52:42.334Z,3.98
2019-02-15T07:53:42.325Z,3.94
2019-02-15T07:54:42.312Z,3.96
2019-02-15T07:55:42.302Z,3.91
2019-02-15T07:56:42.283Z,3.91
2019-02-15T07:57:42.283Z,3.91
2019-02-15T07:58:42.265Z,3.99
2019-02-15T07:59:42.254Z,4.02
2019-02-15T08:00:42.241Z,4.06
2019-02-15T08:01:42.231Z,4.05
2019-02-15T08:02:42.217Z,4.14
2019-02-15T08:03:42.209Z,4.16
2019-02-15T08:04:42.243Z,4.19
2019-02-15T08:05:42.193Z,4.23
2019-02-15T08:06:42.172Z,4.32
2019-02-15T08:07:42.164Z,4.37
2019-02-15T08:08:42.151Z,4.48
2019-02-15T08:09:42.141Z,4.41
2019-02-15T08:10:42.128Z,4.42
2019-02-15T08:11:42.115Z,4.50
2019-02-15T08:12:42.106Z,4.55
2019-02-15T08:13:42.094Z,4.63
2019-02-15T08:14:42.087Z,4.68
2019-02-15T08:15:42.074Z,4.75
2019-02-15T08:16:42.070Z,4.74
2019-02-15T08:17:42.053Z,4.78
2019-02-15T08:18:42.045Z,4.82
2019-02-15T08:19:42.030Z,4.77
2019-02-15T08:20:42.019Z,4.82
2019-02-15T08:21:42.002Z,4.80
2019-02-15T08:22:42.004Z,4.84
2019-02-15T08:23:41.986Z,4.92
2019-02-15T08:24:43.512Z,4.99
2019-02-15T08:25:41.958Z,5.05
2019-02-15T08:26:41.944Z,5.02
2019-02-15T08:27:41.942Z,5.05
2019-02-15T08:28:41.926Z,5.11
2019-02-15T08:29:41.915Z,5.17
2019-02-15T08:30:41.901Z,5.20
2019-02-15T08:31:41.893Z,5.20
2019-02-15T08:32:41.888Z,5.23
2019-02-15T08:33:41.869Z,5.38
2019-02-15T08:34:41.870Z,5.29
2019-02-15T08:35:41.849Z,5.47
2019-02-15T08:36:41.835Z,5.57
2019-02-15T08:37:41.824Z,5.57
2019-02-15T08:38:41.812Z,5.68
2019-02-15T08:39:41.805Z,5.75
2019-02-15T08:40:41.794Z,5.86
2019-02-15T08:41:41.783Z,5.94
2019-02-15T08:42:41.780Z,6.01
2019-02-15T08:43:41.784Z,6.05
2019-02-15T08:44:41.762Z,6.22
2019-02-15T08:45:41.739Z,6.28
2019-02-15T08:46:41.736Z,6.36
2019-02-15T08:47:41.729Z,6.38
2019-02-15T08:48:46.147Z,6.52
2019-02-15T08:49:41.715Z,6.51
2019-02-15T08:50:41.691Z,6.69
2019-02-15T08:51:41.681Z,6.85
2019-02-15T08:52:41.674Z,6.93
2019-02-15T08:53:43.521Z,7.06
2019-02-15T08:54:41.696Z,7.11
2019-02-15T08:55:41.647Z,7.13
2019-02-15T08:56:41.649Z,7.20
2019-02-15T08:57:41.623Z,7.33
2019-02-15T08:58:43.523Z,7.60
2019-02-15T08:59:41.606Z,7.63
2019-02-15T09:00:41.599Z,7.69
2019-02-15T09:01:41.586Z,7.76
2019-02-15T09:02:41.575Z,7.90
2019-02-15T09:03:41.568Z,8.12
2019-02-15T09:04:41.561Z,8.37
2019-02-15T09:05:41.556Z,8.44
2019-02-15T09:06:41.543Z,8.61
2019-02-15T09:07:41.536Z,8.74
2019-02-15T09:08:41.543Z,8.92
2019-02-15T09:09:41.522Z,9.16
2019-02-15T09:10:41.514Z,9.32
2019-02-15T09:11:43.032Z,9.51
2019-02-15T09:12:41.495Z,9.68
2019-02-15T09:13:43.037Z,9.82
2019-02-15T09:14:41.483Z,9.82
2019-02-15T09:15:41.477Z,9.92
2019-02-15T09:16:43.036Z,9.95
2019-02-15T09:17:41.473Z,10.09
2019-02-15T09:18:41.464Z,10.16
2019-02-15T09:19:41.457Z,10.25
2019-02-15T09:20:41.458Z,10.31
2019-02-15T09:21:43.028Z,10.41
2019-02-15T09:22:41.449Z,10.46
2019-02-15T09:23:41.434Z,10.61
2019-02-15T09:24:41.438Z,10.72
2019-02-15T09:25:41.428Z,10.81
2019-02-15T09:26:41.426Z,10.74
2019-02-15T09:27:41.417Z,10.76
2019-02-15T09:28:41.416Z,10.76
2019-02-15T09:29:41.412Z,10.97
2019-02-15T09:30:41.419Z,11.19
2019-02-15T09:31:41.403Z,11.26
2019-02-15T09:32:41.400Z,11.29
2019-02-15T09:33:41.398Z,11.25
2019-02-15T09:34:41.404Z,11.23
2019-02-15T09:35:41.392Z,11.33
2019-02-15T09:36:41.394Z,11.43
2019-02-15T09:37:41.386Z,11.50
2019-02-15T09:38:41.383Z,11.68
2019-02-15T09:39:41.381Z,11.69
2019-02-15T09:40:41.378Z,11.52
2019-02-15T09:41:41.414Z,11.62
2019-02-15T09:42:41.374Z,11.77
2019-02-15T09:43:41.374Z,11.81
2019-02-15T09:44:41.649Z,12.04
2019-02-15T09:45:41.378Z,12.36
2019-02-15T09:46:41.367Z,12.90
2019-02-15T09:47:41.363Z,13.30
2019-02-15T09:48:41.362Z,13.44
2019-02-15T09:49:42.750Z,13.74
2019-02-15T09:50:41.357Z,14.04
2019-02-15T09:51:41.355Z,14.26
2019-02-15T09:52:41.346Z,14.51
2019-02-15T09:53:41.402Z,14.63
2019-02-15T09:54:41.343Z,14.94
2019-02-15T09:55:41.348Z,15.18
2019-02-15T09:56:41.348Z,15.18
2019-02-15T09:57:41.398Z,15.29
2019-02-15T09:58:41.350Z,15.31
2019-02-15T09:59:43.053Z,15.49
2019-02-15T10:00:41.344Z,15.61
2019-02-15T10:01:41.348Z,15.61
2019-02-15T10:02:41.342Z,15.55
2019-02-15T10:03:41.344Z,15.52
2019-02-15T10:04:41.343Z,15.75
2019-02-15T10:05:41.343Z,15.80
2019-02-15T10:06:41.346Z,15.37
2019-02-15T10:07:41.344Z,14.92
2019-02-15T10:08:41.337Z,14.60
2019-02-15T10:09:41.339Z,14.58
2019-02-15T10:10:41.336Z,14.48
2019-02-15T10:11:41.337Z,14.73
2019-02-15T10:12:41.425Z,14.89
2019-02-15T10:13:41.337Z,15.07
2019-02-15T10:14:41.336Z,15.35
2019-02-15T10:15:41.342Z,15.59
2019-02-15T10:16:41.338Z,15.72
2019-02-15T10:17:41.339Z,15.84
2019-02-15T10:18:41.338Z,15.92
2019-02-15T10:19:41.339Z,15.79
2019-02-15T10:20:41.359Z,15.82
2019-02-15T10:21:41.341Z,15.94
2019-02-15T10:22:41.341Z,16.05
2019-02-15T10:23:41.335Z,16.15
2019-02-15T10:24:41.339Z,16.38
2019-02-15T10:25:41.334Z,16.49
2019-02-15T10:26:41.340Z,16.28
2019-02-15T10:27:43.071Z,16.01
2019-02-15T10:28:41.343Z,15.95
2019-02-15T10:29:41.342Z,15.97
2019-02-15T10:30:41.338Z,16.04
2019-02-15T10:31:41.344Z,16.13
2019-02-15T10:32:41.343Z,16.28
2019-02-15T10:33:41.345Z,16.16
2019-02-15T10:34:41.344Z,15.86
2019-02-15T10:35:43.096Z,15.92
2019-02-15T10:36:41.345Z,16.24
2019-02-15T10:37:41.344Z,16.38
2019-02-15T10:38:41.351Z,16.42
2019-02-15T10:39:41.351Z,16.56
2019-02-15T10:40:41.347Z,16.81
2019-02-15T10:41:41.352Z,16.84
2019-02-15T10:42:41.351Z,17.04
2019-02-15T10:43:41.347Z,17.23
2019-02-15T10:44:41.357Z,17.38
2019-02-15T10:45:41.353Z,17.44
2019-02-15T10:46:41.355Z,17.54
2019-02-15T10:47:43.096Z,17.63
2019-02-15T10:48:41.357Z,17.54
2019-02-15T10:49:41.373Z,17.56
2019-02-15T10:50:41.359Z,17.56
2019-02-15T10:51:41.364Z,17.48
2019-02-15T10:52:41.358Z,17.46
2019-02-15T10:53:41.365Z,17.22
2019-02-15T10:54:41.364Z,17.15
2019-02-15T10:55:41.372Z,17.34
2019-02-15T10:56:41.367Z,17.31
2019-02-15T10:57:41.374Z,17.26
2019-02-15T10:58:41.390Z,17.11
2019-02-15T10:59:41.368Z,17.12
2019-02-15T11:00:41.374Z,17.46
2019-02-15T11:01:41.371Z,17.68
2019-02-15T11:02:41.379Z,17.92
2019-02-15T11:03:41.378Z,17.49
2019-02-15T11:04:41.384Z,16.86
2019-02-15T11:05:41.379Z,16.47
2019-02-15T11:06:41.380Z,16.08
2019-02-15T11:07:41.385Z,15.77
2019-02-15T11:08:41.418Z,15.77
2019-02-15T11:09:41.385Z,15.97
2019-02-15T11:10:43.120Z,15.82
2019-02-15T11:11:41.388Z,15.62
2019-02-15T11:12:41.391Z,16.00
2019-02-15T11:13:41.395Z,16.13
2019-02-15T11:14:41.388Z,16.47
2019-02-15T11:15:42.124Z,16.75
2019-02-15T11:16:47.392Z,17.06
2019-02-15T11:17:41.398Z,17.12
2019-02-15T11:18:41.401Z,17.44
2019-02-15T11:19:41.399Z,17.52
2019-02-15T11:20:41.418Z,17.54
2019-02-15T11:21:41.403Z,17.70
2019-02-15T11:22:41.400Z,18.07
2019-02-15T11:23:41.400Z,18.49
2019-02-15T11:24:41.403Z,18.60
2019-02-15T11:25:41.408Z,18.52
2019-02-15T11:26:41.407Z,18.47
2019-02-15T11:27:41.406Z,18.49
2019-02-15T11:28:41.404Z,18.43
2019-02-15T11:29:41.408Z,18.16
2019-02-15T11:30:41.410Z,18.15
2019-02-15T11:31:41.415Z,18.43
2019-02-15T11:32:41.413Z,18.45
2019-02-15T11:33:41.443Z,18.62
2019-02-15T11:34:41.445Z,18.56
2019-02-15T11:35:41.411Z,18.66
2019-02-15T11:36:41.423Z,18.63
2019-02-15T11:37:41.441Z,18.60
2019-02-15T11:38:41.423Z,18.73
2019-02-15T11:39:41.427Z,18.63
2019-02-15T11:40:41.422Z,18.81
2019-02-15T11:41:41.433Z,18.75
2019-02-15T11:42:41.435Z,18.41
2019-02-15T11:43:41.482Z,18.35
2019-02-15T11:44:41.436Z,18.55
2019-02-15T11:45:41.440Z,18.55
2019-02-15T11:46:41.440Z,18.43
2019-02-15T11:47:41.436Z,18.58
2019-02-15T11:48:41.441Z,18.74
2019-02-15T11:49:41.442Z,18.73
2019-02-15T11:50:41.448Z,18.90
2019-02-15T11:51:41.507Z,18.93
2019-02-15T11:52:41.453Z,19.07
2019-02-15T11:53:41.458Z,19.26
2019-02-15T11:54:41.457Z,19.34
2019-02-15T11:55:41.457Z,19.27
2019-02-15T11:56:41.456Z,19.36
2019-02-15T11:57:41.468Z,19.44
2019-02-15T11:58:41.464Z,19.40
2019-02-15T11:59:41.461Z,19.52
2019-02-15T12:00:41.472Z,19.48
2019-02-15T12:01:41.481Z,19.51
2019-02-15T12:02:41.475Z,19.70
2019-02-15T12:03:41.473Z,19.84
2019-02-15T12:04:41.471Z,19.71
2019-02-15T12:05:43.152Z,19.70
2019-02-15T12:06:41.477Z,19.73
2019-02-15T12:07:41.480Z,19.85
2019-02-15T12:08:41.474Z,19.73
2019-02-15T12:09:41.483Z,19.81
2019-02-15T12:10:41.488Z,19.85
2019-02-15T12:11:41.484Z,20.00
2019-02-15T12:12:41.490Z,20.21
2019-02-15T12:13:41.487Z,20.16
2019-02-15T12:14:41.488Z,20.03
2019-02-15T12:15:41.501Z,20.21
2019-02-15T12:16:41.493Z,20.26
2019-02-15T12:17:41.493Z,20.32
2019-02-15T12:18:41.500Z,20.34
2019-02-15T12:19:41.503Z,20.25
2019-02-15T12:20:41.498Z,20.36
2019-02-15T12:21:41.506Z,20.47
2019-02-15T12:22:41.510Z,20.39
2019-02-15T12:23:41.503Z,20.07
2019-02-15T12:24:41.506Z,19.66
2019-02-15T12:25:41.511Z,19.71
2019-02-15T12:26:41.524Z,19.81
2019-02-15T12:27:41.517Z,19.74
2019-02-15T12:28:41.516Z,19.49
2019-02-15T12:29:41.523Z,19.40
2019-02-15T12:30:41.511Z,19.48
2019-02-15T12:31:41.517Z,19.74
2019-02-15T12:32:41.525Z,19.81
2019-02-15T12:33:41.521Z,19.81
2019-02-15T12:34:41.519Z,19.84
2019-02-15T12:35:41.525Z,19.92
2019-02-15T12:36:41.541Z,20.03
2019-02-15T12:37:42.188Z,19.85
2019-02-15T12:38:41.526Z,19.63
2019-02-15T12:39:41.529Z,19.79
2019-02-15T12:40:41.536Z,20.14
2019-02-15T12:41:41.527Z,20.26
2019-02-15T12:42:41.539Z,20.34
2019-02-15T12:43:41.532Z,20.39
2019-02-15T12:44:41.534Z,20.43
2019-02-15T12:45:41.540Z,20.58
2019-02-15T12:46:41.556Z,20.55
2019-02-15T12:47:41.532Z,20.43
2019-02-15T12:48:41.536Z,20.47
2019-02-15T12:49:43.184Z,20.24
2019-02-15T12:50:41.534Z,20.29
2019-02-15T12:51:41.542Z,20.37
2019-02-15T12:52:41.550Z,20.58
2019-02-15T12:53:41.549Z,20.67
2019-02-15T12:54:41.544Z,20.92
2019-02-15T12:55:41.541Z,20.85
2019-02-15T12:56:41.897Z,20.82
2019-02-15T12:57:41.549Z,20.82
2019-02-15T12:58:41.551Z,20.81
2019-02-15T12:59:41.549Z,20.67
2019-02-15T13:00:41.546Z,20.52
2019-02-15T13:01:41.554Z,20.63
2019-02-15T13:02:41.551Z,20.63
2019-02-15T13:03:41.549Z,20.69
2019-02-15T13:04:41.556Z,20.87
2019-02-15T13:05:41.943Z,20.81
2019-02-15T13:06:43.091Z,20.90
2019-02-15T13:07:41.553Z,21.09
2019-02-15T13:08:41.557Z,20.95
2019-02-15T13:09:41.551Z,20.90
2019-02-15T13:10:41.555Z,20.88